Aviation Digital Data Service (ADDS)

Output produced by METARs form (0753 UTC 21 November 2017)
found at http://www.aviationweather.gov/adds/metars/
 
METAR text: KSBP 210656Z 16003KT 10SM CLR 14/09 A3007 RMK AO2 SLP182 T01390089
Conditions at: KSBP (SAN LUIS OBISPO , CA, US) observed 0656 UTC 21 November 2017
Temperature: 13.9°C (57°F)
Dewpoint: 8.9°C (48°F) [RH = 72%]
Pressure (altimeter): 30.07 inches Hg (1018.4 mb)
[Sea-level pressure: 1018.2 mb]
Winds: from the SSE (160 degrees) at 3 MPH (3 knots; 1.6 m/s)
Visibility: 10 or more miles (16+ km)
Ceiling: at least 12,000 feet AGL
Clouds: sky clear below 12,000 feet AGL
Weather: no significant weather observed at this time

METAR text: KSBP 210556Z 15004KT 10SM CLR 15/09 A3007 RMK AO2 SLP183 T01500094 10228 20144 50002
Conditions at: KSBP (SAN LUIS OBISPO , CA, US) observed 0556 UTC 21 November 2017
Temperature: 15.0°C (59°F)
Dewpoint: 9.4°C (49°F) [RH = 69%]
Pressure (altimeter): 30.07 inches Hg (1018.4 mb)
[Sea-level pressure: 1018.3 mb]
Winds: from the SSE (150 degrees) at 5 MPH (4 knots; 2.1 m/s)
Visibility: 10 or more miles (16+ km)
Ceiling: at least 12,000 feet AGL
Clouds: sky clear below 12,000 feet AGL
Weather: no significant weather observed at this time

METAR text: KSBP 210456Z 00000KT 10SM CLR 16/10 A3008 RMK AO2 SLP185 T01560100
Conditions at: KSBP (SAN LUIS OBISPO , CA, US) observed 0456 UTC 21 November 2017
Temperature: 15.6°C (60°F)
Dewpoint: 10.0°C (50°F) [RH = 69%]
Pressure (altimeter): 30.08 inches Hg (1018.7 mb)
[Sea-level pressure: 1018.5 mb]
Winds: calm
Visibility: 10 or more miles (16+ km)
Ceiling: at least 12,000 feet AGL
Clouds: sky clear below 12,000 feet AGL
Weather: no significant weather observed at this time

METAR text: KSBP 210356Z 30007KT 10SM CLR 16/09 A3008 RMK AO2 SLP187 T01560089
Conditions at: KSBP (SAN LUIS OBISPO , CA, US) observed 0356 UTC 21 November 2017
Temperature: 15.6°C (60°F)
Dewpoint: 8.9°C (48°F) [RH = 64%]
Pressure (altimeter): 30.08 inches Hg (1018.7 mb)
[Sea-level pressure: 1018.7 mb]
Winds: from the WNW (300 degrees) at 8 MPH (7 knots; 3.6 m/s)
Visibility: 10 or more miles (16+ km)
Ceiling: at least 12,000 feet AGL
Clouds: sky clear below 12,000 feet AGL
Weather: no significant weather observed at this time

METAR text: KSBP 210256Z 30004KT 10SM CLR 17/08 A3007 RMK AO2 SLP182 T01720083 51008
Conditions at: KSBP (SAN LUIS OBISPO , CA, US) observed 0256 UTC 21 November 2017
Temperature: 17.2°C (63°F)
Dewpoint: 8.3°C (47°F) [RH = 56%]
Pressure (altimeter): 30.07 inches Hg (1018.4 mb)
[Sea-level pressure: 1018.2 mb]
Winds: from the WNW (300 degrees) at 5 MPH (4 knots; 2.1 m/s)
Visibility: 10 or more miles (16+ km)
Ceiling: at least 12,000 feet AGL
Clouds: sky clear below 12,000 feet AGL
Weather: no significant weather observed at this time

METAR text: KSBP 210156Z 33010KT 10SM CLR 18/07 A3007 RMK AO2 SLP180 T01830072
Conditions at: KSBP (SAN LUIS OBISPO , CA, US) observed 0156 UTC 21 November 2017
Temperature: 18.3°C (65°F)
Dewpoint: 7.2°C (45°F) [RH = 48%]
Pressure (altimeter): 30.07 inches Hg (1018.4 mb)
[Sea-level pressure: 1018.0 mb]
Winds: from the NNW (330 degrees) at 12 MPH (10 knots; 5.2 m/s)
Visibility: 10 or more miles (16+ km)
Ceiling: at least 12,000 feet AGL
Clouds: sky clear below 12,000 feet AGL
Weather: no significant weather observed at this time

METAR text: KSBP 210056Z 33010KT 10SM CLR 20/08 A3005 RMK AO2 SLP176 T02000083
Conditions at: KSBP (SAN LUIS OBISPO , CA, US) observed 0056 UTC 21 November 2017
Temperature: 20.0°C (68°F)
Dewpoint: 8.3°C (47°F) [RH = 47%]
Pressure (altimeter): 30.05 inches Hg (1017.7 mb)
[Sea-level pressure: 1017.6 mb]
Winds: from the NNW (330 degrees) at 12 MPH (10 knots; 5.2 m/s)
Visibility: 10 or more miles (16+ km)
Ceiling: at least 12,000 feet AGL
Clouds: sky clear below 12,000 feet AGL
Weather: no significant weather observed at this time

METAR text: KSBP 202356Z 32012KT 10SM CLR 23/08 A3005 RMK AO2 SLP173 T02280078 10250 20200 55008
Conditions at: KSBP (SAN LUIS OBISPO , CA, US) observed 2356 UTC 20 November 2017
Temperature: 22.8°C (73°F)
Dewpoint: 7.8°C (46°F) [RH = 38%]
Pressure (altimeter): 30.05 inches Hg (1017.7 mb)
[Sea-level pressure: 1017.3 mb]
Winds: from the NW (320 degrees) at 14 MPH (12 knots; 6.2 m/s)
Visibility: 10 or more miles (16+ km)
Ceiling: at least 12,000 feet AGL
Clouds: sky clear below 12,000 feet AGL
Weather: no significant weather observed at this time